Time;durP1;ratioP1;P1;durP2;ratioP2;P2;SDS_P1;SDS_P2;PMS_P1;PMS_P2;Temp;Humidity;BMP_temperature;BMP_pressure;BME280_temperature;BME280_humidity;BME280_pressure;Samples;Min_cycle;Max_cycle;Signal;HPM_P1;HPM_P2
2022/08/19 00:01:48;;;;;;;43.22;25.40;;;;;;;;;;5064733;28;20448;-56
2022/08/19 00:04:15;;;;;;;40.90;25.02;;;;;;;;;;5071717;28;20107;-56
2022/08/19 00:06:43;;;;;;;45.25;27.83;;;;;;;;;;5066010;28;20371;-56
2022/08/19 00:09:11;;;;;;;43.20;25.98;;;;;;;;;;5061423;28;20024;-56
2022/08/19 00:11:37;;;;;;;41.03;25.73;;;;;;;;;;5057517;28;20120;-56
2022/08/19 00:14:05;;;;;;;43.50;26.48;;;;;;;;;;5055991;28;20020;-55
2022/08/19 00:16:32;;;;;;;45.30;26.90;;;;;;;;;;5065869;28;20028;-56
2022/08/19 00:18:58;;;;;;;47.72;27.52;;;;;;;;;;5061048;28;20029;-56
2022/08/19 00:21:24;;;;;;;41.88;24.10;;;;;;;;;;5070955;28;20444;-56
2022/08/19 00:23:50;;;;;;;46.92;25.60;;;;;;;;;;5055003;28;20029;-56
2022/08/19 00:26:16;;;;;;;42.30;26.00;;;;;;;;;;5066734;28;20029;-56
2022/08/19 00:28:41;;;;;;;42.05;26.00;;;;;;;;;;5059827;28;20024;-56
2022/08/19 00:31:08;;;;;;;41.97;26.35;;;;;;;;;;5058739;28;20390;-56
2022/08/19 00:33:33;;;;;;;46.97;26.67;;;;;;;;;;5067056;28;20104;-57
2022/08/19 00:36:00;;;;;;;45.97;25.65;;;;;;;;;;5071513;28;20128;-56
2022/08/19 00:38:26;;;;;;;44.85;26.88;;;;;;;;;;5071169;28;20500;-57
2022/08/19 00:40:52;;;;;;;43.20;25.42;;;;;;;;;;5071297;28;20032;-56
2022/08/19 00:43:24;;;;;;;44.78;26.83;;;;;;;;;;5071109;28;20035;-56
2022/08/19 00:45:49;;;;;;;44.72;26.25;;;;;;;;;;5075544;28;20059;-56
2022/08/19 00:48:16;;;;;;;44.50;25.45;;;;;;;;;;5067666;28;20306;-56
2022/08/19 00:50:42;;;;;;;47.67;26.45;;;;;;;;;;5055628;28;20029;-56
2022/08/19 00:53:09;;;;;;;44.10;24.60;;;;;;;;;;5054526;28;20737;-56
2022/08/19 00:55:34;;;;;;;41.15;25.02;;;;;;;;;;5071479;28;20158;-55
2022/08/19 00:58:13;;;;;;;46.67;26.45;;;;;;;;;;5054772;28;20104;-55
2022/08/19 01:00:39;;;;;;;41.78;24.98;;;;;;;;;;5068217;28;20062;-55
2022/08/19 01:03:12;;;;;;;40.72;24.80;;;;;;;;;;5073732;28;20130;-56
2022/08/19 01:05:40;;;;;;;42.22;25.15;;;;;;;;;;5069671;28;20029;-55
2022/08/19 01:08:06;;;;;;;38.60;23.67;;;;;;;;;;5064360;28;20115;-55
2022/08/19 01:10:38;;;;;;;41.53;23.65;;;;;;;;;;5061645;28;20154;-55
2022/08/19 01:13:05;;;;;;;43.47;25.35;;;;;;;;;;5069913;28;20035;-55
2022/08/19 01:15:35;;;;;;;40.95;23.73;;;;;;;;;;5055209;28;20056;-55
2022/08/19 01:18:06;;;;;;;41.20;25.42;;;;;;;;;;5064754;28;20486;-55
2022/08/19 01:20:34;;;;;;;43.13;24.80;;;;;;;;;;5058946;28;20405;-56
2022/08/19 01:23:00;;;;;;;41.95;24.98;;;;;;;;;;5053817;28;20032;-56
2022/08/19 01:25:34;;;;;;;44.78;24.05;;;;;;;;;;5060775;28;20501;-55
2022/08/19 01:28:00;;;;;;;47.03;25.08;;;;;;;;;;5062815;28;20040;-56
2022/08/19 01:30:32;;;;;;;43.03;25.75;;;;;;;;;;5055179;28;20029;-54
2022/08/19 01:32:59;;;;;;;42.85;24.27;;;;;;;;;;5057110;28;20119;-55
2022/08/19 01:35:26;;;;;;;44.78;25.30;;;;;;;;;;5074541;28;20091;-54
2022/08/19 01:37:55;;;;;;;45.47;26.30;;;;;;;;;;5074300;28;20040;-56
2022/08/19 01:40:23;;;;;;;41.85;24.65;;;;;;;;;;5058584;28;20033;-55
2022/08/19 01:42:50;;;;;;;44.35;25.67;;;;;;;;;;5069261;28;20039;-54
2022/08/19 01:45:16;;;;;;;48.25;27.40;;;;;;;;;;5066696;28;20033;-55
2022/08/19 01:47:41;;;;;;;41.88;24.08;;;;;;;;;;5065804;28;20020;-55
2022/08/19 01:50:09;;;;;;;42.30;24.98;;;;;;;;;;5074385;28;20025;-55
2022/08/19 01:52:37;;;;;;;44.28;25.63;;;;;;;;;;5057055;28;20025;-54
2022/08/19 01:55:05;;;;;;;44.78;24.85;;;;;;;;;;5066733;28;20024;-54
2022/08/19 01:57:30;;;;;;;47.40;24.85;;;;;;;;;;5065445;28;20086;-55
2022/08/19 01:59:56;;;;;;;48.97;26.73;;;;;;;;;;5058305;28;20017;-55
2022/08/19 02:02:22;;;;;;;47.10;26.27;;;;;;;;;;5053351;28;20029;-54
2022/08/19 02:04:48;;;;;;;43.72;24.92;;;;;;;;;;5053775;28;20021;-54
2022/08/19 02:07:13;;;;;;;44.10;25.15;;;;;;;;;;5053921;28;20537;-55
2022/08/19 02:09:38;;;;;;;45.20;24.92;;;;;;;;;;5068145;28;20021;-55
2022/08/19 02:12:04;;;;;;;46.33;25.08;;;;;;;;;;5073142;28;20089;-55
2022/08/19 02:14:30;;;;;;;45.33;25.98;;;;;;;;;;5073449;28;20012;-55
2022/08/19 02:16:55;;;;;;;45.60;25.63;;;;;;;;;;5063128;28;20021;-55
2022/08/19 02:19:21;;;;;;;46.63;24.88;;;;;;;;;;5053632;28;20021;-54
2022/08/19 02:21:46;;;;;;;43.75;25.20;;;;;;;;;;5069795;28;20508;-55
2022/08/19 02:24:12;;;;;;;45.08;25.35;;;;;;;;;;5069350;28;20100;-55
2022/08/19 02:26:37;;;;;;;43.63;24.30;;;;;;;;;;5061860;28;20428;-55
2022/08/19 02:29:03;;;;;;;47.88;24.55;;;;;;;;;;5061122;28;20025;-55
2022/08/19 02:31:29;;;;;;;44.17;24.23;;;;;;;;;;5068787;28;20028;-55
2022/08/19 02:33:55;;;;;;;48.83;24.65;;;;;;;;;;5053513;28;20032;-55
2022/08/19 02:36:21;;;;;;;45.13;24.40;;;;;;;;;;5061044;28;20028;-55
2022/08/19 02:38:47;;;;;;;46.47;24.92;;;;;;;;;;5062306;28;20478;-55
2022/08/19 02:41:21;;;;;;;44.72;25.23;;;;;;;;;;5068128;28;20028;-55
2022/08/19 02:43:47;;;;;;;47.25;25.77;;;;;;;;;;5068901;28;20063;-55
2022/08/19 02:46:20;;;;;;;48.90;26.17;;;;;;;;;;5060901;28;20397;-55
2022/08/19 02:48:50;;;;;;;46.67;23.85;;;;;;;;;;5073088;28;20482;-55
2022/08/19 02:51:16;;;;;;;;;;;;;;;;;;5057198;28;20493;-55
2022/08/19 02:53:41;;;;;;;47.85;25.08;;;;;;;;;;5068319;28;19908;-55
2022/08/19 02:56:07;;;;;;;45.70;23.80;;;;;;;;;;5053137;28;20036;-55
2022/08/19 02:58:33;;;;;;;51.80;26.48;;;;;;;;;;5052486;28;20029;-55
2022/08/19 03:00:58;;;;;;;46.55;25.48;;;;;;;;;;5052770;28;20044;-55
2022/08/19 03:03:24;;;;;;;50.08;26.25;;;;;;;;;;5067979;28;20037;-55
2022/08/19 03:05:49;;;;;;;45.58;24.63;;;;;;;;;;5059511;28;20047;-55
2022/08/19 03:08:15;;;;;;;51.00;25.48;;;;;;;;;;5072783;28;20035;-55
2022/08/19 03:10:47;;;;;;;50.95;25.80;;;;;;;;;;5058083;28;20036;-55
2022/08/19 03:13:16;;;;;;;48.47;25.48;;;;;;;;;;5070796;28;20016;-54
2022/08/19 03:15:43;;;;;;;50.03;26.63;;;;;;;;;;5072556;28;20548;-55
2022/08/19 03:18:09;;;;;;;55.95;26.35;;;;;;;;;;5061200;28;20286;-54
2022/08/19 03:20:40;;;;;;;48.20;24.73;;;;;;;;;;5052685;28;20061;-55
2022/08/19 03:23:06;;;;;;;47.50;25.20;;;;;;;;;;5070227;28;20081;-54
2022/08/19 03:25:37;;;;;;;45.95;24.08;;;;;;;;;;5072440;28;20060;-55
2022/08/19 03:28:02;;;;;;;47.88;26.38;;;;;;;;;;5059843;28;20044;-54
2022/08/19 03:30:28;;;;;;;49.15;24.63;;;;;;;;;;5068183;28;20028;-54
2022/08/19 03:32:53;;;;;;;45.85;24.52;;;;;;;;;;5068023;28;20447;-55
2022/08/19 03:35:20;;;;;;;48.13;25.42;;;;;;;;;;5052405;28;20021;-55
2022/08/19 03:37:45;;;;;;;53.50;26.40;;;;;;;;;;5052111;28;20489;-54
2022/08/19 03:40:10;;;;;;;47.42;25.88;;;;;;;;;;5067000;28;20081;-54
2022/08/19 03:42:37;;;;;;;45.10;25.63;;;;;;;;;;5054910;28;20021;-55
2022/08/19 03:45:02;;;;;;;50.88;26.23;;;;;;;;;;5065310;28;20017;-55
2022/08/19 03:47:28;;;;;;;49.60;26.08;;;;;;;;;;5052259;28;20394;-54
2022/08/19 03:49:53;;;;;;;47.58;24.00;;;;;;;;;;5052154;28;20054;-56
2022/08/19 03:52:19;;;;;;;47.47;25.65;;;;;;;;;;5067367;28;20101;-55
2022/08/19 03:54:44;;;;;;;51.00;26.58;;;;;;;;;;5051996;28;20029;-54
2022/08/19 03:57:10;;;;;;;52.13;26.27;;;;;;;;;;5060604;28;20032;-54
2022/08/19 03:59:37;;;;;;;46.88;25.45;;;;;;;;;;5071567;28;20031;-54
2022/08/19 04:02:09;;;;;;;49.30;25.67;;;;;;;;;;5054547;28;20158;-55
2022/08/19 04:04:36;;;;;;;51.55;26.98;;;;;;;;;;5070442;28;20540;-55
2022/08/19 04:07:01;;;;;;;50.40;25.40;;;;;;;;;;5062706;28;20032;-55
2022/08/19 04:09:26;;;;;;;51.22;26.20;;;;;;;;;;5051622;28;20017;-54
2022/08/19 04:11:56;;;;;;;47.42;25.52;;;;;;;;;;5051054;28;20450;-55
2022/08/19 04:14:25;;;;;;;51.00;26.55;;;;;;;;;;5071438;28;20025;-55
2022/08/19 04:16:51;;;;;;;50.03;25.67;;;;;;;;;;5071576;28;20496;-55
2022/08/19 04:19:18;;;;;;;50.13;25.73;;;;;;;;;;5058045;28;20100;-55
2022/08/19 04:21:46;;;;;;;49.50;25.50;;;;;;;;;;5067337;28;20020;-55
2022/08/19 04:24:13;;;;;;;51.95;26.33;;;;;;;;;;5066671;28;20025;-55
2022/08/19 04:26:39;;;;;;;49.95;26.38;;;;;;;;;;5059981;28;20027;-54
2022/08/19 04:29:35;;;;;;;48.65;26.90;;;;;;;;;;5071146;28;20393;-54
2022/08/19 04:32:00;;;;;;;50.60;26.25;;;;;;;;;;5055468;28;20032;-55
2022/08/19 04:34:29;;;;;;;53.70;26.67;;;;;;;;;;5071403;28;20474;-54
2022/08/19 04:36:56;;;;;;;50.20;25.90;;;;;;;;;;5059122;28;20111;-54
2022/08/19 04:42:38;;;;;;;47.42;24.83;;;;;;;;;;5051532;28;20029;-54
2022/08/19 04:44:55;;;;;;;52.53;26.10;;;;;;;;;;5070679;28;20101;-55
2022/08/19 04:47:20;;;;;;;53.47;25.10;;;;;;;;;;5055217;28;20025;-54
2022/08/19 04:49:46;;;;;;;48.80;25.85;;;;;;;;;;5071476;28;20028;-54
2022/08/19 04:52:11;;;;;;;53.03;25.92;;;;;;;;;;5070397;28;20024;-55
2022/08/19 04:54:37;;;;;;;54.05;26.42;;;;;;;;;;5058920;28;20021;-54
2022/08/19 04:57:05;;;;;;;50.50;26.15;;;;;;;;;;5067144;28;20028;-54
2022/08/19 04:59:32;;;;;;;51.13;26.45;;;;;;;;;;5066704;28;20017;-54
2022/08/19 05:01:57;;;;;;;51.20;26.92;;;;;;;;;;5058041;28;20043;-54
2022/08/19 05:04:23;;;;;;;51.47;25.45;;;;;;;;;;5059195;28;20021;-54
2022/08/19 05:06:48;;;;;;;50.22;26.45;;;;;;;;;;5065385;28;20401;-54
2022/08/19 05:09:15;;;;;;;56.78;26.83;;;;;;;;;;5071114;28;20082;-57
2022/08/19 05:11:40;;;;;;;52.08;27.00;;;;;;;;;;5070332;28;20040;-57
2022/08/19 05:14:07;;;;;;;51.88;26.75;;;;;;;;;;5059642;28;20488;-57
2022/08/19 05:16:33;;;;;;;50.28;24.83;;;;;;;;;;5065677;28;20086;-56
2022/08/19 05:24:27;;;;;;;51.58;26.65;;;;;;;;;;5055959;28;20115;-57
2022/08/19 05:26:56;;;;;;;53.65;27.48;;;;;;;;;;5050885;28;20104;-57
2022/08/19 05:29:23;;;;;;;49.93;25.67;;;;;;;;;;5058731;28;20039;-56
2022/08/19 05:31:49;;;;;;;53.60;26.95;;;;;;;;;;5062945;28;20104;-57
2022/08/19 05:34:16;;;;;;;53.88;28.90;;;;;;;;;;5069097;28;20020;-57
2022/08/19 05:36:44;;;;;;;50.85;26.38;;;;;;;;;;5058364;28;20029;-57
2022/08/19 05:39:17;;;;;;;54.50;27.13;;;;;;;;;;5067734;28;20100;-57
2022/08/19 05:41:48;;;;;;;50.47;26.15;;;;;;;;;;5065397;28;20035;-57
2022/08/19 05:44:14;;;;;;;54.25;27.88;;;;;;;;;;5069709;28;20074;-57
2022/08/19 05:46:42;;;;;;;56.53;29.05;;;;;;;;;;5054601;28;20025;-57
2022/08/19 05:49:08;;;;;;;54.38;28.17;;;;;;;;;;5061921;28;20029;-57
2022/08/19 05:51:37;;;;;;;52.17;25.92;;;;;;;;;;5061901;28;20079;-57
2022/08/19 05:54:04;;;;;;;54.28;28.00;;;;;;;;;;5053664;28;20029;-57
2022/08/19 05:56:30;;;;;;;56.47;27.00;;;;;;;;;;5054274;28;20493;-57
2022/08/19 05:58:56;;;;;;;55.80;27.58;;;;;;;;;;5061128;28;20065;-57
2022/08/19 06:01:21;;;;;;;57.13;28.45;;;;;;;;;;5073406;28;20460;-57
2022/08/19 06:03:47;;;;;;;56.88;26.48;;;;;;;;;;5059049;28;20501;-57
2022/08/19 06:06:15;;;;;;;60.78;29.88;;;;;;;;;;5070360;28;20070;-57
2022/08/19 06:08:42;;;;;;;56.35;28.95;;;;;;;;;;5053908;28;20459;-57
2022/08/19 06:11:20;;;;;;;64.45;31.35;;;;;;;;;;5054086;28;20033;-57
2022/08/19 06:13:50;;;;;;;61.42;30.83;;;;;;;;;;5069573;28;20028;-57
2022/08/19 06:16:20;;;;;;;57.35;30.23;;;;;;;;;;5058307;28;20051;-57
2022/08/19 06:18:46;;;;;;;60.25;31.50;;;;;;;;;;5073789;28;20024;-57
2022/08/19 06:21:12;;;;;;;60.08;29.48;;;;;;;;;;5060813;28;20032;-57
2022/08/19 06:23:38;;;;;;;59.50;30.30;;;;;;;;;;5069330;28;20111;-57
2022/08/19 06:26:04;;;;;;;64.25;31.58;;;;;;;;;;5073899;28;20028;-57
2022/08/19 06:28:29;;;;;;;63.15;30.65;;;;;;;;;;5065189;28;20516;-57
2022/08/19 06:30:54;;;;;;;57.05;29.70;;;;;;;;;;5053931;28;20530;-57
2022/08/19 06:33:20;;;;;;;55.47;29.10;;;;;;;;;;5067942;28;20028;-57
2022/08/19 06:35:45;;;;;;;59.25;30.40;;;;;;;;;;5070423;28;20095;-56
2022/08/19 06:38:11;;;;;;;57.00;28.67;;;;;;;;;;5060091;28;20413;-57
2022/08/19 06:40:37;;;;;;;60.67;31.13;;;;;;;;;;5062089;28;20025;-56
2022/08/19 06:43:03;;;;;;;54.25;28.75;;;;;;;;;;5053933;28;20068;-56
2022/08/19 06:45:28;;;;;;;61.40;31.10;;;;;;;;;;5071166;28;20446;-57
2022/08/19 06:47:55;;;;;;;58.80;31.20;;;;;;;;;;5053164;28;20029;-57
2022/08/19 06:50:22;;;;;;;59.40;31.58;;;;;;;;;;5062795;28;20032;-57
2022/08/19 06:52:48;;;;;;;63.95;31.52;;;;;;;;;;5072149;28;20577;-57
2022/08/19 06:55:14;;;;;;;59.75;30.60;;;;;;;;;;5071907;28;20025;-57
2022/08/19 06:57:39;;;;;;;67.20;33.03;;;;;;;;;;5057990;28;20446;-57
2022/08/19 07:00:10;;;;;;;61.55;31.65;;;;;;;;;;5062155;28;20055;-57
2022/08/19 07:02:37;;;;;;;58.75;30.35;;;;;;;;;;5065470;28;20485;-57
2022/08/19 07:05:03;;;;;;;57.75;31.10;;;;;;;;;;5056412;28;20100;-56
2022/08/19 07:07:33;;;;;;;62.40;31.45;;;;;;;;;;5067628;28;20031;-55
2022/08/19 07:09:58;;;;;;;56.53;31.00;;;;;;;;;;5062211;28;20066;-56
2022/08/19 07:12:24;;;;;;;61.22;32.28;;;;;;;;;;5058909;28;20024;-55
2022/08/19 07:14:49;;;;;;;65.03;32.60;;;;;;;;;;5068457;28;20025;-57
2022/08/19 07:17:15;;;;;;;65.10;31.90;;;;;;;;;;5052474;28;20477;-57
2022/08/19 07:19:42;;;;;;;65.68;32.45;;;;;;;;;;5060825;28;20478;-57
2022/08/19 07:22:08;;;;;;;57.40;30.27;;;;;;;;;;5071896;28;20024;-56
2022/08/19 07:24:35;;;;;;;62.58;33.15;;;;;;;;;;5072162;28;20037;-56
2022/08/19 07:27:04;;;;;;;61.30;31.83;;;;;;;;;;5068437;28;20381;-56
2022/08/19 07:29:32;;;;;;;59.03;30.97;;;;;;;;;;5060097;28;20032;-57
2022/08/19 07:31:58;;;;;;;57.92;30.30;;;;;;;;;;5058874;28;20086;-57
2022/08/19 07:34:25;;;;;;;64.75;32.35;;;;;;;;;;5068425;28;20020;-57
2022/08/19 07:36:52;;;;;;;59.60;31.52;;;;;;;;;;5072239;28;20675;-57
2022/08/19 07:39:23;;;;;;;64.88;32.08;;;;;;;;;;5064262;28;20052;-57
2022/08/19 07:41:50;;;;;;;61.20;31.15;;;;;;;;;;5056383;28;20100;-57
2022/08/19 07:44:16;;;;;;;58.20;30.35;;;;;;;;;;5066718;28;20028;-57
2022/08/19 07:46:45;;;;;;;63.88;32.40;;;;;;;;;;5052346;28;20044;-57
2022/08/19 07:49:17;;;;;;;63.40;33.58;;;;;;;;;;5060238;28;20021;-57
2022/08/19 07:51:43;;;;;;;53.45;29.88;;;;;;;;;;5058212;28;20032;-58
2022/08/19 07:54:08;;;;;;;58.42;31.15;;;;;;;;;;5052321;28;20501;-57
2022/08/19 07:56:34;;;;;;;61.83;30.85;;;;;;;;;;5067510;28;20036;-57
2022/08/19 07:58:59;;;;;;;57.97;31.05;;;;;;;;;;5050035;28;20032;-57
2022/08/19 08:01:27;;;;;;;62.78;32.25;;;;;;;;;;5051068;28;20059;-57
2022/08/19 08:09:32;;;;;;;62.67;31.90;;;;;;;;;;5058933;28;20078;-57
2022/08/19 08:12:07;;;;;;;70.18;33.92;;;;;;;;;;5050810;28;20035;-57
2022/08/19 08:14:38;;;;;;;61.25;31.70;;;;;;;;;;5058137;28;20032;-57
2022/08/19 08:17:05;;;;;;;65.40;34.05;;;;;;;;;;5060336;28;20025;-57
2022/08/19 08:19:31;;;;;;;68.78;33.20;;;;;;;;;;5051521;28;20103;-57
2022/08/19 08:21:59;;;;;;;61.42;33.25;;;;;;;;;;5050466;28;20482;-57
2022/08/19 08:24:30;;;;;;;68.45;33.25;;;;;;;;;;5058428;28;20051;-57
2022/08/19 08:26:58;;;;;;;64.15;32.33;;;;;;;;;;5059810;28;20562;-57
2022/08/19 08:29:25;;;;;;;64.15;33.20;;;;;;;;;;5051023;28;20033;-57
2022/08/19 08:31:51;;;;;;;66.03;32.90;;;;;;;;;;5066829;28;20021;-57
2022/08/19 08:37:33;;;;;;;62.17;31.90;;;;;;;;;;5047777;28;20036;-57
2022/08/19 08:40:04;;;;;;;63.20;31.58;;;;;;;;;;5065623;28;20025;-57
2022/08/19 08:42:36;;;;;;;66.30;32.97;;;;;;;;;;5060715;28;20023;-57
2022/08/19 08:45:14;;;;;;;69.00;34.05;;;;;;;;;;5070554;28;20466;-57
2022/08/19 08:47:43;;;;;;;67.85;33.45;;;;;;;;;;5055266;28;20387;-57
2022/08/19 08:50:35;;;;;;;63.92;33.13;;;;;;;;;;5071301;28;20463;-57
2022/08/19 08:53:05;;;;;;;61.70;32.53;;;;;;;;;;5070197;28;20033;-57
2022/08/19 08:55:31;;;;;;;60.83;31.38;;;;;;;;;;5066000;28;20028;-57
2022/08/19 08:58:09;;;;;;;65.03;32.85;;;;;;;;;;5050624;28;20028;-57
2022/08/19 09:00:42;;;;;;;61.25;31.98;;;;;;;;;;5064343;28;20394;-57
2022/08/19 09:03:19;;;;;;;59.47;31.20;;;;;;;;;;5053922;28;20021;-57
2022/08/19 09:06:07;;;;;;;68.35;34.28;;;;;;;;;;5067312;28;20394;-57
2022/08/19 09:08:43;;;;;;;59.45;31.10;;;;;;;;;;5055013;28;20016;-57
2022/08/19 09:11:13;;;;;;;59.65;32.10;;;;;;;;;;5071349;28;20021;-57
2022/08/19 09:14:10;;;;;;;64.95;33.17;;;;;;;;;;5061408;28;20111;-57
2022/08/19 09:16:36;;;;;;;60.90;32.17;;;;;;;;;;5073822;28;20405;-57
2022/08/19 09:19:05;;;;;;;65.90;33.95;;;;;;;;;;5058569;28;20035;-57
2022/08/19 09:21:30;;;;;;;62.47;32.67;;;;;;;;;;5070823;28;20036;-57
2022/08/19 09:23:57;;;;;;;59.47;31.08;;;;;;;;;;5074569;28;20020;-57
2022/08/19 09:26:23;;;;;;;58.60;30.85;;;;;;;;;;5059928;28;20025;-57
2022/08/19 09:28:52;;;;;;;60.83;31.13;;;;;;;;;;5070316;28;20474;-57
2022/08/19 09:31:26;;;;;;;60.50;32.00;;;;;;;;;;5054239;28;20371;-57
2022/08/19 09:33:52;;;;;;;62.53;32.92;;;;;;;;;;5066470;28;20086;-58
2022/08/19 09:36:22;;;;;;;61.17;31.70;;;;;;;;;;5072676;28;20025;-57
2022/08/19 09:39:14;;;;;;;60.65;31.90;;;;;;;;;;5058414;28;20028;-57
2022/08/19 09:41:39;;;;;;;64.50;32.38;;;;;;;;;;5073466;28;20033;-57
2022/08/19 09:44:04;;;;;;;60.92;32.70;;;;;;;;;;5068955;28;20039;-57
2022/08/19 09:46:30;;;;;;;58.35;30.10;;;;;;;;;;5074485;28;20033;-57
2022/08/19 09:48:58;;;;;;;58.70;30.52;;;;;;;;;;5067743;28;20455;-57
2022/08/19 09:51:27;;;;;;;62.42;32.50;;;;;;;;;;5053655;28;20031;-57
2022/08/19 09:53:56;;;;;;;62.97;32.70;;;;;;;;;;5068960;28;20016;-57
2022/08/19 09:56:22;;;;;;;57.67;30.98;;;;;;;;;;5074232;28;20020;-57
2022/08/19 09:58:48;;;;;;;59.67;30.63;;;;;;;;;;5066804;28;20040;-57
2022/08/19 10:01:23;;;;;;;59.35;30.25;;;;;;;;;;5064563;28;20486;-57
2022/08/19 10:03:51;;;;;;;60.20;32.10;;;;;;;;;;5073461;28;20115;-58
2022/08/19 10:06:18;;;;;;;59.53;31.00;;;;;;;;;;5076049;28;20020;-57
2022/08/19 10:08:44;;;;;;;60.97;31.90;;;;;;;;;;5074137;28;20016;-57
2022/08/19 10:11:09;;;;;;;58.75;31.73;;;;;;;;;;5066238;28;20478;-56
2022/08/19 10:13:36;;;;;;;62.25;32.70;;;;;;;;;;5057367;28;20050;-57
2022/08/19 10:16:05;;;;;;;61.22;31.52;;;;;;;;;;5055555;28;20371;-57
2022/08/19 10:18:33;;;;;;;57.45;30.83;;;;;;;;;;5066269;28;20506;-57
2022/08/19 10:21:09;;;;;;;59.10;31.92;;;;;;;;;;5065410;28;20027;-58
2022/08/19 10:23:37;;;;;;;57.72;29.92;;;;;;;;;;5056574;28;20036;-57
2022/08/19 10:26:05;;;;;;;56.13;30.73;;;;;;;;;;5068076;28;20029;-57
2022/08/19 10:28:32;;;;;;;57.85;30.95;;;;;;;;;;5061633;28;20490;-57
2022/08/19 10:30:58;;;;;;;64.38;32.88;;;;;;;;;;5060829;28;20040;-58
2022/08/19 10:33:24;;;;;;;55.20;30.33;;;;;;;;;;5068735;28;20446;-57
2022/08/19 10:35:59;;;;;;;58.35;30.05;;;;;;;;;;5053711;28;20035;-57
2022/08/19 10:38:25;;;;;;;62.65;31.10;;;;;;;;;;5062699;28;20107;-57
2022/08/19 10:41:15;;;;;;;63.53;31.92;;;;;;;;;;5060407;28;20111;-57
2022/08/19 10:43:42;;;;;;;60.03;31.05;;;;;;;;;;5059262;28;20052;-58
2022/08/19 10:46:09;;;;;;;61.35;32.78;;;;;;;;;;5065547;28;20055;-57
2022/08/19 10:48:34;;;;;;;64.72;33.08;;;;;;;;;;5064841;28;20035;-57
2022/08/19 10:53:44;;;;;;;62.08;33.28;;;;;;;;;;5052884;28;20040;-58
2022/08/19 10:58:57;;;;;;;56.45;29.10;;;;;;;;;;5053055;28;20063;-58
2022/08/19 11:01:22;;;;;;;59.80;31.73;;;;;;;;;;5058290;28;20029;-57
2022/08/19 11:03:47;;;;;;;59.60;31.77;;;;;;;;;;5072621;28;20485;-57
2022/08/19 11:06:13;;;;;;;60.55;31.83;;;;;;;;;;5073009;28;20028;-57
2022/08/19 11:08:38;;;;;;;57.35;31.45;;;;;;;;;;5072678;28;20127;-58
2022/08/19 11:11:06;;;;;;;59.88;31.67;;;;;;;;;;5056515;28;20029;-57
2022/08/19 11:13:37;;;;;;;61.65;32.50;;;;;;;;;;5071590;28;20086;-57
2022/08/19 11:16:13;;;;;;;65.35;32.72;;;;;;;;;;5072938;28;20024;-57
2022/08/19 11:18:42;;;;;;;61.00;32.28;;;;;;;;;;5055952;28;20502;-57
2022/08/19 11:21:27;;;;;;;;;;;;;;;;;;5057509;28;20020;-57
2022/08/19 11:23:56;;;;;;;65.90;32.13;;;;;;;;;;5061366;28;19974;-57
2022/08/19 11:26:23;;;;;;;63.85;31.77;;;;;;;;;;5067621;28;20029;-57
2022/08/19 11:28:50;;;;;;;60.97;32.13;;;;;;;;;;5055466;28;20028;-58
2022/08/19 11:31:19;;;;;;;62.47;31.88;;;;;;;;;;5064936;28;20033;-58
2022/08/19 11:33:45;;;;;;;63.50;32.00;;;;;;;;;;5052201;28;20424;-57
2022/08/19 11:36:12;;;;;;;60.40;31.02;;;;;;;;;;5052418;28;20021;-58
2022/08/19 11:38:37;;;;;;;61.22;32.92;;;;;;;;;;5068325;28;20390;-57
2022/08/19 11:41:07;;;;;;;60.40;32.08;;;;;;;;;;5052388;28;20021;-57
2022/08/19 11:43:33;;;;;;;56.92;31.25;;;;;;;;;;5050950;28;20367;-57
2022/08/19 11:45:59;;;;;;;57.38;31.70;;;;;;;;;;5067104;28;20029;-57
2022/08/19 11:48:25;;;;;;;59.13;31.73;;;;;;;;;;5054329;28;20412;-58
2022/08/19 11:50:56;;;;;;;60.17;32.05;;;;;;;;;;5071967;28;20023;-58
2022/08/19 11:53:21;;;;;;;59.33;31.33;;;;;;;;;;5059989;28;20487;-58
2022/08/19 11:55:48;;;;;;;64.38;33.17;;;;;;;;;;5066738;28;20158;-57
2022/08/19 11:58:15;;;;;;;61.63;32.85;;;;;;;;;;5068837;28;20032;-58
2022/08/19 12:00:41;;;;;;;59.08;30.77;;;;;;;;;;5058201;28;20032;-57
2022/08/19 12:03:07;;;;;;;55.85;31.60;;;;;;;;;;5070893;28;20030;-57
2022/08/19 12:05:33;;;;;;;52.80;29.63;;;;;;;;;;5057598;28;20056;-57
2022/08/19 12:07:59;;;;;;;53.80;29.35;;;;;;;;;;5053638;28;20091;-57
2022/08/19 12:10:25;;;;;;;54.67;30.05;;;;;;;;;;5066055;28;20029;-57
2022/08/19 12:12:50;;;;;;;50.90;28.70;;;;;;;;;;5050981;28;20507;-57
2022/08/19 12:15:16;;;;;;;49.58;27.80;;;;;;;;;;5064785;28;20108;-58
2022/08/19 12:17:42;;;;;;;52.30;28.92;;;;;;;;;;5070837;28;20033;-57
2022/08/19 12:20:10;;;;;;;55.60;29.25;;;;;;;;;;5056236;28;20135;-57
2022/08/19 12:22:37;;;;;;;47.92;27.27;;;;;;;;;;5070776;28;20032;-57
2022/08/19 12:25:03;;;;;;;44.83;25.65;;;;;;;;;;5058552;28;20033;-57
2022/08/19 12:27:29;;;;;;;47.92;26.42;;;;;;;;;;5067559;28;20048;-57
2022/08/19 12:29:54;;;;;;;51.10;28.00;;;;;;;;;;5050864;28;20056;-57
2022/08/19 12:32:21;;;;;;;48.55;26.40;;;;;;;;;;5050777;28;20104;-57
2022/08/19 12:34:47;;;;;;;48.28;26.23;;;;;;;;;;5063067;28;20033;-57
2022/08/19 12:37:13;;;;;;;49.67;27.23;;;;;;;;;;5055475;28;20017;-58
2022/08/19 12:39:41;;;;;;;46.22;26.38;;;;;;;;;;5053966;28;20082;-58
2022/08/19 12:42:08;;;;;;;48.88;27.42;;;;;;;;;;5050466;28;20040;-58
2022/08/19 12:44:35;;;;;;;46.03;26.77;;;;;;;;;;5053674;28;20059;-57
2022/08/19 12:47:02;;;;;;;50.13;27.52;;;;;;;;;;5066903;28;20029;-57
2022/08/19 12:49:29;;;;;;;46.60;26.30;;;;;;;;;;5051703;28;20452;-57
2022/08/19 12:51:54;;;;;;;47.03;26.38;;;;;;;;;;5057795;28;20104;-58
2022/08/19 12:54:20;;;;;;;50.92;28.65;;;;;;;;;;5060031;28;20151;-57
2022/08/19 12:56:45;;;;;;;46.28;26.30;;;;;;;;;;5050039;28;20520;-57
2022/08/19 12:59:11;;;;;;;49.40;29.02;;;;;;;;;;5066816;28;20032;-57
2022/08/19 13:01:37;;;;;;;49.60;27.52;;;;;;;;;;5056628;28;20060;-57
2022/08/19 13:04:03;;;;;;;51.03;28.02;;;;;;;;;;5060827;28;20025;-58
2022/08/19 13:06:29;;;;;;;53.13;31.77;;;;;;;;;;5065170;28;20130;-57
2022/08/19 13:08:54;;;;;;;53.95;29.63;;;;;;;;;;5054708;28;20501;-58
2022/08/19 13:11:24;;;;;;;52.88;28.63;;;;;;;;;;5070375;28;20020;-57
2022/08/19 13:13:51;;;;;;;47.90;26.77;;;;;;;;;;5060927;28;20482;-57
2022/08/19 13:16:17;;;;;;;48.90;26.55;;;;;;;;;;5051149;28;20033;-57
2022/08/19 13:18:47;;;;;;;51.15;27.80;;;;;;;;;;5052073;28;20035;-57
2022/08/19 13:21:12;;;;;;;53.80;28.08;;;;;;;;;;5065388;28;20024;-58
2022/08/19 13:23:39;;;;;;;46.88;25.80;;;;;;;;;;5050141;28;20024;-58
2022/08/19 13:26:06;;;;;;;48.47;26.95;;;;;;;;;;5064183;28;20103;-58
2022/08/19 13:34:04;;;;;;;52.72;28.40;;;;;;;;;;5056821;28;20032;-57
2022/08/19 13:36:29;;;;;;;51.72;28.30;;;;;;;;;;5068954;28;20428;-58
2022/08/19 13:38:56;;;;;;;52.22;28.60;;;;;;;;;;5070700;28;20082;-57
2022/08/19 13:41:21;;;;;;;49.00;27.33;;;;;;;;;;5060695;28;20021;-57
2022/08/19 13:43:48;;;;;;;50.58;27.67;;;;;;;;;;5058143;28;20017;-57
2022/08/19 13:46:14;;;;;;;48.90;27.65;;;;;;;;;;5054574;28;20048;-57
2022/08/19 13:48:40;;;;;;;47.13;27.60;;;;;;;;;;5070692;28;20028;-57
2022/08/19 13:51:09;;;;;;;49.80;29.00;;;;;;;;;;5064172;28;20375;-58
2022/08/19 13:53:39;;;;;;;47.80;27.25;;;;;;;;;;5053726;28;20029;-58
2022/08/19 13:56:15;;;;;;;46.83;26.45;;;;;;;;;;5054322;28;20535;-57
2022/08/19 13:58:41;;;;;;;47.00;27.23;;;;;;;;;;5060351;28;20566;-57
2022/08/19 14:01:07;;;;;;;46.40;26.02;;;;;;;;;;5063757;28;20176;-57
2022/08/19 14:03:34;;;;;;;49.97;27.63;;;;;;;;;;5053044;28;20111;-57
2022/08/19 14:05:59;;;;;;;51.15;27.55;;;;;;;;;;5054257;28;20108;-58
2022/08/19 14:08:27;;;;;;;52.33;29.10;;;;;;;;;;5059457;28;20127;-57
2022/08/19 14:10:54;;;;;;;43.80;25.80;;;;;;;;;;5064266;28;20021;-57
2022/08/19 14:13:21;;;;;;;49.25;27.55;;;;;;;;;;5052631;28;20444;-58
2022/08/19 14:15:47;;;;;;;47.38;27.00;;;;;;;;;;5053945;28;20091;-57
2022/08/19 14:18:13;;;;;;;50.97;26.88;;;;;;;;;;5059007;28;20635;-58
2022/08/19 14:20:40;;;;;;;51.40;26.27;;;;;;;;;;5068791;28;20107;-57
2022/08/19 14:23:15;;;;;;;48.75;27.00;;;;;;;;;;5059488;28;20025;-58
2022/08/19 14:25:41;;;;;;;44.47;25.58;;;;;;;;;;5055560;28;20036;-57
2022/08/19 14:28:07;;;;;;;45.92;25.88;;;;;;;;;;5067443;28;20446;-58
2022/08/19 14:30:34;;;;;;;42.42;25.40;;;;;;;;;;5063226;28;20036;-57
2022/08/19 14:33:01;;;;;;;44.95;26.55;;;;;;;;;;5072626;28;20024;-58
2022/08/19 14:35:28;;;;;;;42.42;24.95;;;;;;;;;;5061461;28;20078;-58
2022/08/19 14:37:55;;;;;;;42.03;25.08;;;;;;;;;;5058945;28;20025;-57
2022/08/19 14:40:26;;;;;;;46.30;27.23;;;;;;;;;;5064034;28;20036;-58
2022/08/19 14:43:00;;;;;;;49.05;27.50;;;;;;;;;;5052470;28;20028;-58
2022/08/19 14:45:27;;;;;;;45.28;26.10;;;;;;;;;;5057394;28;20025;-58
2022/08/19 14:47:53;;;;;;;38.92;22.80;;;;;;;;;;5073220;28;20024;-58
2022/08/19 14:50:19;;;;;;;45.08;25.80;;;;;;;;;;5073506;28;20029;-58